Time;durP1;ratioP1;P1;durP2;ratioP2;P2;SDS_P1;SDS_P2;PMS_P1;PMS_P2;Temp;Humidity;BMP_temperature;BMP_pressure;BME280_temperature;BME280_humidity;BME280_pressure;Samples;Min_cycle;Max_cycle;Signal;HPM_P1;HPM_P2
2022/01/21 00:00:13;;;;;;;7.53;0.77;;;;;;;-3.63;100.00;103259.06;5036220;28;20043;-50
2022/01/21 00:02:39;;;;;;;0.82;0.30;;;;;;;-3.64;100.00;103262.53;5040793;28;20044;-49
2022/01/21 00:05:06;;;;;;;1.17;0.63;;;;;;;-3.63;100.00;103261.66;5038315;28;20037;-49
2022/01/21 00:07:32;;;;;;;5.80;0.95;;;;;;;-3.66;100.00;103253.94;5022255;28;20112;-49
2022/01/21 00:09:57;;;;;;;5.00;0.60;;;;;;;-3.67;100.00;103254.81;5038072;28;20123;-50
2022/01/21 00:12:24;;;;;;;1.92;0.63;;;;;;;-3.72;100.00;103257.50;5036789;28;20036;-52
2022/01/21 00:14:49;;;;;;;4.50;0.85;;;;;;;-3.77;100.00;103262.78;5034382;28;20038;-52
2022/01/21 00:17:17;;;;;;;3.63;1.50;;;;;;;-3.79;100.00;103258.53;5045076;28;20035;-48
2022/01/21 00:19:45;;;;;;;6.63;0.60;;;;;;;-3.81;100.00;103255.94;5037516;28;20405;-52
2022/01/21 00:30:26;;;;;;;2.80;0.90;;;;;;;-3.95;100.00;103265.72;5043692;28;20082;-51
2022/01/21 00:32:52;;;;;;;4.88;1.00;;;;;;;-3.97;100.00;103264.91;5035962;28;20487;-52
2022/01/21 00:35:19;;;;;;;3.65;0.47;;;;;;;-4.01;100.00;103256.31;5034565;28;20155;-49
2022/01/21 00:37:45;;;;;;;3.28;0.80;;;;;;;-4.05;100.00;103254.69;5037013;28;20029;-51
2022/01/21 00:40:15;;;;;;;1.40;0.80;;;;;;;-4.09;100.00;103249.59;5040912;28;20115;-52
2022/01/21 00:45:12;;;;;;;2.50;1.10;;;;;;;-4.18;100.00;103245.44;5032691;28;20107;-49
2022/01/21 00:47:38;;;;;;;1.25;0.57;;;;;;;-4.23;100.00;103237.75;5040218;28;20031;-49
2022/01/21 00:50:03;;;;;;;5.10;0.32;;;;;;;-4.24;100.00;103246.38;5045926;28;20044;-50
2022/01/21 00:52:29;;;;;;;1.90;0.65;;;;;;;-4.23;100.00;103250.69;5048264;28;20029;-48
2022/01/21 00:54:54;;;;;;;9.20;1.60;;;;;;;-4.22;100.00;103246.34;5035325;28;20042;-50
2022/01/21 00:57:20;;;;;;;3.60;0.98;;;;;;;-4.25;100.00;103243.81;5045768;28;20366;-52
2022/01/21 00:59:45;;;;;;;7.97;1.25;;;;;;;-4.28;100.00;103238.72;5044798;28;20064;-54
2022/01/21 01:02:10;;;;;;;2.13;0.55;;;;;;;-4.33;100.00;103246.56;5045839;28;20580;-50
2022/01/21 01:04:36;;;;;;;9.18;0.50;;;;;;;-4.38;100.00;103240.59;5037799;28;20025;-51
2022/01/21 01:07:02;;;;;;;7.35;1.48;;;;;;;-4.39;100.00;103236.28;5038356;28;20039;-50
2022/01/21 01:09:27;;;;;;;2.28;1.00;;;;;;;-4.43;100.00;103245.84;5045337;28;20040;-51
2022/01/21 01:19:58;;;;;;;1.67;0.90;;;;;;;-4.49;100.00;103242.50;5039070;28;20118;-53
2022/01/21 01:22:33;;;;;;;17.52;6.28;;;;;;;-4.55;100.00;103232.25;5043546;28;20170;-51
2022/01/21 01:27:42;;;;;;;3.35;1.35;;;;;;;-4.67;100.00;103236.78;5037030;28;20418;-49
2022/01/21 01:30:12;;;;;;;4.82;1.60;;;;;;;-4.67;100.00;103234.19;5034917;28;20037;-50
2022/01/21 01:32:39;;;;;;;7.10;1.38;;;;;;;-4.70;100.00;103226.47;5040340;28;20488;-50
2022/01/21 01:35:06;;;;;;;2.08;1.33;;;;;;;-4.74;100.00;103224.78;5038733;28;20044;-49
2022/01/21 01:50:48;;;;;;;2.78;0.52;;;;;;;-4.79;100.00;103218.00;5050007;28;20387;-50
2022/01/21 01:53:15;;;;;;;10.25;2.30;;;;;;;-4.87;100.00;103212.94;5038231;28;20410;-49
2022/01/21 01:55:40;;;;;;;1.33;0.82;;;;;;;-4.92;100.00;103209.56;5036663;28;20029;-50
2022/01/21 01:58:06;;;;;;;12.32;1.00;;;;;;;-4.98;100.00;103214.81;5043480;28;20044;-48
2022/01/21 02:00:31;;;;;;;0.32;0.32;;;;;;;-5.05;100.00;103212.34;5044802;28;20037;-52
2022/01/21 02:03:10;;;;;;;1.42;0.75;;;;;;;-5.05;100.00;103214.06;5037925;28;20056;-50
2022/01/21 02:05:36;;;;;;;5.60;1.15;;;;;;;-5.02;100.00;103206.25;5036483;28;20051;-51
2022/01/21 02:08:02;;;;;;;1.25;0.82;;;;;;;-5.05;100.00;103204.56;5035896;28;20108;-52
2022/01/21 02:10:27;;;;;;;2.72;1.13;;;;;;;-5.05;100.00;103203.72;5026932;28;20458;-54
2022/01/21 02:13:03;;;;;;;1.67;1.02;;;;;;;-5.08;100.00;103208.94;5045092;28;20504;-51
2022/01/21 02:15:28;;;;;;;4.72;1.95;;;;;;;-5.08;100.00;103202.03;5041699;28;20419;-49
2022/01/21 02:23:25;;;;;;;2.05;0.47;;;;;;;-5.07;100.00;103203.72;5037884;28;20110;-50
2022/01/21 02:25:50;;;;;;;8.00;0.55;;;;;;;-5.11;100.00;103204.69;5035328;28;20486;-51
2022/01/21 02:28:16;;;;;;;4.93;0.98;;;;;;;-5.16;100.00;103206.47;5044658;28;20044;-49
2022/01/21 02:30:55;;;;;;;2.97;0.65;;;;;;;-5.17;100.00;103203.91;5039718;28;20067;-52
2022/01/21 02:33:22;;;;;;;4.32;0.77;;;;;;;-5.19;100.00;103210.81;5044165;28;20029;-49
2022/01/21 02:35:48;;;;;;;3.22;1.02;;;;;;;-5.22;100.00;103203.97;5037843;28;20036;-48
2022/01/21 02:38:14;;;;;;;1.23;0.50;;;;;;;-5.26;100.00;103208.34;5036942;28;20433;-49
2022/01/21 02:40:39;;;;;;;1.08;0.70;;;;;;;-5.29;100.00;103215.31;5039122;28;20033;-50
2022/01/21 02:43:05;;;;;;;5.75;1.25;;;;;;;-5.37;100.00;103207.66;5040987;28;20091;-49
2022/01/21 02:45:30;;;;;;;3.53;1.05;;;;;;;-5.42;100.00;103217.19;5030791;28;20079;-49
2022/01/21 02:47:56;;;;;;;1.50;0.73;;;;;;;-5.44;100.00;103200.84;5038339;28;20025;-53
2022/01/21 02:50:21;;;;;;;1.67;0.73;;;;;;;-5.50;100.00;103199.19;5045064;28;20025;-49
2022/01/21 02:53:08;;;;;;;6.90;1.63;;;;;;;-5.48;100.00;103199.16;5039597;28;20029;-50
2022/01/21 02:55:34;;;;;;;6.47;1.33;;;;;;;-5.41;100.00;103208.56;5042743;28;20034;-51
2022/01/21 02:57:59;;;;;;;11.00;1.67;;;;;;;-5.37;100.00;103214.53;5035502;28;20037;-50
2022/01/21 03:00:25;;;;;;;4.15;1.45;;;;;;;-5.36;100.00;103224.00;5036894;28;20037;-48
2022/01/21 03:02:50;;;;;;;3.05;0.90;;;;;;;-5.37;100.00;103236.09;5039530;28;20137;-51
2022/01/21 03:05:17;;;;;;;1.95;0.50;;;;;;;-5.36;100.00;103236.94;5044283;28;20067;-49
2022/01/21 03:07:43;;;;;;;5.30;0.70;;;;;;;-5.43;100.00;103230.97;5031894;28;20408;-49
2022/01/21 03:10:09;;;;;;;1.10;0.70;;;;;;;-5.51;100.00;103236.25;5041136;28;20462;-48
2022/01/21 03:12:34;;;;;;;3.03;0.90;;;;;;;-5.60;100.00;103228.63;5043202;28;20033;-50
2022/01/21 03:14:59;;;;;;;3.13;0.88;;;;;;;-5.64;100.00;103229.53;5032954;28;20293;-49
2022/01/21 03:17:25;;;;;;;2.88;0.77;;;;;;;-5.68;100.00;103233.03;5042843;28;20041;-50
2022/01/21 03:19:50;;;;;;;2.67;0.50;;;;;;;-5.70;100.00;103240.81;5041886;28;20104;-48
2022/01/21 03:22:15;;;;;;;4.53;0.80;;;;;;;-5.61;100.00;103250.16;5033977;28;20033;-51
2022/01/21 03:24:41;;;;;;;4.57;1.02;;;;;;;-5.53;100.00;103245.75;5033666;28;20124;-50
2022/01/21 03:27:06;;;;;;;5.47;1.60;;;;;;;-5.44;100.00;103237.03;5045190;28;20373;-50
2022/01/21 03:29:32;;;;;;;4.90;1.60;;;;;;;-5.38;100.00;103242.13;5048481;28;20037;-49
2022/01/21 03:31:57;;;;;;;2.85;0.50;;;;;;;-5.39;100.00;103240.41;5043701;28;20486;-51
2022/01/21 03:34:23;;;;;;;0.65;0.47;;;;;;;-5.48;100.00;103231.03;5043494;28;20033;-51
2022/01/21 03:36:49;;;;;;;1.80;1.13;;;;;;;-5.59;100.00;103227.75;5047523;28;20029;-52
2022/01/21 03:39:15;;;;;;;4.13;0.80;;;;;;;-5.64;100.00;103221.78;5037929;28;20059;-49
2022/01/21 03:41:41;;;;;;;3.85;0.85;;;;;;;-5.66;100.00;103220.94;5046754;28;20474;-50
2022/01/21 03:44:06;;;;;;;2.50;0.95;;;;;;;-5.74;100.00;103217.59;5046597;28;20036;-49
2022/01/21 03:46:32;;;;;;;4.18;0.98;;;;;;;-5.76;100.00;103229.69;5039909;28;20040;-50
2022/01/21 03:48:57;;;;;;;6.07;1.08;;;;;;;-5.74;100.00;103231.38;5039275;28;20041;-53
2022/01/21 03:51:23;;;;;;;2.35;0.55;;;;;;;-5.72;100.00;103227.03;5039843;28;20115;-53
2022/01/21 03:53:49;;;;;;;1.42;0.80;;;;;;;-5.66;100.00;103222.66;5037198;28;20462;-47
2022/01/21 03:56:15;;;;;;;7.75;1.38;;;;;;;-5.60;100.00;103222.59;5043102;28;20461;-49
2022/01/21 03:58:41;;;;;;;4.75;1.48;;;;;;;-5.63;100.00;103209.69;5036473;28;20041;-50
2022/01/21 04:01:07;;;;;;;2.78;1.00;;;;;;;-5.72;100.00;103213.28;5033785;28;20514;-55
2022/01/21 04:03:32;;;;;;;1.40;0.73;;;;;;;-5.76;100.00;103224.50;5036148;28;20033;-53
2022/01/21 04:05:58;;;;;;;7.18;1.15;;;;;;;-5.75;100.00;103226.25;5042580;28;20409;-53
2022/01/21 04:08:23;;;;;;;12.68;2.05;;;;;;;-5.75;100.00;103213.31;5044680;28;20025;-50
2022/01/21 04:10:49;;;;;;;2.95;0.70;;;;;;;-5.79;100.00;103214.22;5045328;28;20022;-51
2022/01/21 04:13:18;;;;;;;5.35;2.40;;;;;;;-5.85;100.00;103219.47;5046542;28;20033;-48
2022/01/21 04:15:47;;;;;;;3.83;1.15;;;;;;;-5.87;100.00;103226.38;5043857;28;20029;-48
2022/01/21 04:18:15;;;;;;;2.85;0.98;;;;;;;-5.83;100.00;103228.06;5035229;28;20414;-51
2022/01/21 04:20:42;;;;;;;5.80;1.23;;;;;;;-5.80;100.00;103228.03;5041650;28;20090;-53
2022/01/21 04:23:09;;;;;;;3.70;1.25;;;;;;;-5.81;100.00;103229.72;5042261;28;20033;-52
2022/01/21 04:25:34;;;;;;;2.72;1.00;;;;;;;-5.84;100.00;103232.34;5041632;28;20040;-50
2022/01/21 04:28:00;;;;;;;2.08;0.60;;;;;;;-5.93;100.00;103227.31;5041358;28;20434;-50
2022/01/21 04:30:25;;;;;;;6.82;2.05;;;;;;;-6.03;100.00;103229.16;5041309;28;20094;-52
2022/01/21 04:32:51;;;;;;;5.05;1.40;;;;;;;-6.07;100.00;103224.88;5044504;28;20024;-49
2022/01/21 04:35:16;;;;;;;13.68;1.60;;;;;;;-6.00;100.00;103230.84;5051641;28;20112;-51
2022/01/21 04:37:50;;;;;;;3.40;1.67;;;;;;;-5.93;100.00;103238.50;5046553;28;20057;-51
2022/01/21 04:40:18;;;;;;;5.38;1.02;;;;;;;-5.92;100.00;103232.44;5028106;28;20083;-50
2022/01/21 04:48:11;;;;;;;1.27;0.82;;;;;;;-6.02;100.00;103233.44;5029999;28;20398;-51
2022/01/21 04:50:42;;;;;;;2.08;0.98;;;;;;;-6.11;100.00;103240.47;5042443;28;20029;-49
2022/01/21 04:53:08;;;;;;;5.20;0.75;;;;;;;-6.16;100.00;103250.84;5046196;28;20032;-49
2022/01/21 04:55:35;;;;;;;3.17;0.95;;;;;;;-6.15;100.00;103245.63;5045507;28;20025;-51
2022/01/21 04:58:00;;;;;;;4.85;1.75;;;;;;;-6.13;100.00;103237.88;5037266;28;20064;-51
2022/01/21 05:00:26;;;;;;;11.45;2.08;;;;;;;-6.10;100.00;103240.41;5041731;28;20040;-51
2022/01/21 05:02:52;;;;;;;5.88;2.22;;;;;;;-6.11;100.00;103232.72;5044005;28;20052;-50
2022/01/21 05:05:17;;;;;;;2.97;1.25;;;;;;;-6.13;100.00;103234.44;5046914;28;20029;-49
2022/01/21 05:07:43;;;;;;;3.17;1.48;;;;;;;-6.15;100.00;103237.03;5045584;28;20386;-50
2022/01/21 05:10:08;;;;;;;7.32;1.80;;;;;;;-6.14;100.00;103223.25;5043990;28;20435;-51
2022/01/21 05:12:34;;;;;;;4.05;1.33;;;;;;;-6.17;100.00;103226.75;5039121;28;20112;-49
2022/01/21 05:17:28;;;;;;;0.98;0.82;;;;;;;-6.30;100.00;103222.53;5045556;28;20493;-51
2022/01/21 05:19:53;;;;;;;14.35;1.65;;;;;;;-6.32;100.00;103231.16;5042649;28;20075;-52
2022/01/21 05:22:19;;;;;;;7.38;1.73;;;;;;;-6.32;100.00;103219.13;5041179;28;20041;-55
2022/01/21 05:24:44;;;;;;;3.22;1.02;;;;;;;-6.33;100.00;103221.72;5042379;28;20107;-50
2022/01/21 05:27:12;;;;;;;13.18;1.42;;;;;;;-6.32;100.00;103220.84;5035250;28;20137;-51
2022/01/21 05:29:38;;;;;;;3.15;1.27;;;;;;;-6.25;100.00;103219.91;5037121;28;20041;-52
2022/01/21 05:32:06;;;;;;;7.82;1.63;;;;;;;-6.25;100.00;103219.91;5033188;28;20478;-52
2022/01/21 05:34:32;;;;;;;10.60;2.10;;;;;;;-6.30;100.00;103216.53;5044639;28;20037;-49
2022/01/21 05:36:57;;;;;;;6.35;2.00;;;;;;;-6.32;100.00;103216.56;5038749;28;20095;-49
2022/01/21 05:39:23;;;;;;;1.48;0.77;;;;;;;-6.33;100.00;103211.41;5045772;28;20033;-51
2022/01/21 05:41:51;;;;;;;8.70;2.60;;;;;;;-6.36;100.00;103215.72;5041617;28;20462;-49
2022/01/21 05:47:02;;;;;;;6.93;1.48;;;;;;;-6.37;100.00;103211.44;5040597;28;20045;-50
2022/01/21 05:49:30;;;;;;;3.72;0.65;;;;;;;-6.40;100.00;103208.88;5041366;28;20486;-55
2022/01/21 05:54:41;;;;;;;5.70;1.75;;;;;;;-6.37;100.00;103216.59;5038340;28;20412;-50
2022/01/21 05:57:09;;;;;;;4.32;1.88;;;;;;;-6.36;100.00;103210.56;5030258;28;20041;-50
2022/01/21 05:59:34;;;;;;;5.18;1.67;;;;;;;-6.40;100.00;103213.16;5035755;28;20048;-53
2022/01/21 06:02:00;;;;;;;5.25;1.23;;;;;;;-6.46;100.00;103213.25;5038187;28;20040;-49
2022/01/21 06:04:25;;;;;;;5.15;1.85;;;;;;;-6.49;100.00;103215.84;5040716;28;20090;-54
2022/01/21 06:06:51;;;;;;;3.90;1.40;;;;;;;-6.47;100.00;103219.28;5035813;28;20057;-52
2022/01/21 06:09:16;;;;;;;13.38;1.52;;;;;;;-6.45;100.00;103217.56;5038233;28;20919;-48
2022/01/21 06:11:42;;;;;;;5.55;1.90;;;;;;;-6.46;100.00;103216.66;5042804;28;20072;-53
2022/01/21 06:14:07;;;;;;;3.72;0.90;;;;;;;-6.50;100.00;103219.31;5038959;28;20033;-51
2022/01/21 06:16:38;;;;;;;6.00;1.55;;;;;;;-6.53;100.00;103215.03;5037590;28;20041;-51
2022/01/21 06:19:03;;;;;;;7.63;1.23;;;;;;;-6.55;100.00;103221.94;5036337;28;20025;-53
2022/01/21 06:21:28;;;;;;;6.50;2.20;;;;;;;-6.57;100.00;103215.94;5038863;28;20140;-51
2022/01/21 06:23:54;;;;;;;9.13;1.55;;;;;;;-6.58;100.00;103216.81;5042218;28;20037;-53
2022/01/21 06:26:19;;;;;;;11.45;2.63;;;;;;;-6.58;100.00;103221.97;5040265;28;20542;-50
2022/01/21 06:28:45;;;;;;;5.50;1.35;;;;;;;-6.57;100.00;103223.66;5041801;28;20041;-52
2022/01/21 06:31:10;;;;;;;8.82;1.40;;;;;;;-6.54;100.00;103225.38;5038894;28;20087;-50
2022/01/21 06:33:35;;;;;;;4.03;1.38;;;;;;;-6.54;100.00;103226.22;5036432;28;20061;-51
2022/01/21 06:36:01;;;;;;;9.82;1.30;;;;;;;-6.56;100.00;103234.84;5041079;28;20447;-53
2022/01/21 06:38:27;;;;;;;11.75;1.90;;;;;;;-6.59;100.00;103241.72;5035427;28;20033;-50
2022/01/21 06:40:53;;;;;;;4.05;1.40;;;;;;;-6.60;100.00;103246.94;5036529;28;20633;-49
2022/01/21 06:43:19;;;;;;;12.90;2.05;;;;;;;-6.62;100.00;103251.25;5031784;28;20141;-50
2022/01/21 06:45:44;;;;;;;2.60;1.55;;;;;;;-6.64;100.00;103258.13;5031485;28;20029;-50
2022/01/21 06:48:10;;;;;;;5.38;1.73;;;;;;;-6.66;100.00;103255.59;5038405;28;20147;-51
2022/01/21 06:50:38;;;;;;;4.53;2.10;;;;;;;-6.72;100.00;103262.50;5043810;28;20025;-52
2022/01/21 06:53:04;;;;;;;4.88;1.42;;;;;;;-6.72;100.00;103254.75;5031020;28;20064;-51
2022/01/21 06:55:29;;;;;;;4.80;1.05;;;;;;;-6.72;100.00;103255.63;5040100;28;20107;-55
2022/01/21 06:57:55;;;;;;;3.53;1.70;;;;;;;-6.72;100.00;103260.78;5043713;28;20029;-49
2022/01/21 07:00:21;;;;;;;4.82;1.35;;;;;;;-6.73;100.00;103261.66;5039910;28;20039;-50
2022/01/21 07:02:47;;;;;;;11.35;1.30;;;;;;;-6.74;100.00;103269.41;5039171;28;20067;-48
2022/01/21 07:05:13;;;;;;;7.72;1.65;;;;;;;-6.75;100.00;103270.28;5042764;28;20285;-48
2022/01/21 07:07:38;;;;;;;2.78;1.42;;;;;;;-6.80;100.00;103266.00;5045074;28;20035;-50
2022/01/21 07:10:06;;;;;;;4.65;2.08;;;;;;;-6.83;100.00;103268.59;5039705;28;20064;-48
2022/01/21 07:12:33;;;;;;;5.50;1.43;;;;;;;-6.87;100.00;103266.88;5041445;28;20052;-51
2022/01/21 07:14:58;;;;;;;3.28;2.10;;;;;;;-6.89;100.00;103278.97;5036538;28;20564;-50
2022/01/21 07:17:23;;;;;;;6.13;1.77;;;;;;;-6.90;100.00;103277.25;5034400;28;20111;-49
2022/01/21 07:19:49;;;;;;;8.20;2.08;;;;;;;-6.93;100.00;103266.94;5028257;28;20037;-49
2022/01/21 07:22:14;;;;;;;6.40;2.30;;;;;;;-6.92;100.00;103272.94;5034722;28;20087;-48
2022/01/21 07:24:40;;;;;;;2.45;1.30;;;;;;;-6.96;100.00;103279.88;5037797;28;20029;-49
2022/01/21 07:27:05;;;;;;;4.93;2.50;;;;;;;-6.93;100.00;103272.09;5040529;28;20478;-48
2022/01/21 07:29:31;;;;;;;6.97;3.13;;;;;;;-6.88;100.00;103283.25;5036522;28;20043;-50
2022/01/21 07:31:57;;;;;;;3.70;1.70;;;;;;;-6.81;100.00;103271.19;5042207;28;20049;-49
2022/01/21 07:34:24;;;;;;;2.83;1.50;;;;;;;-6.81;100.00;103259.13;5035869;28;20434;-49
2022/01/21 07:36:50;;;;;;;4.87;1.77;;;;;;;-6.83;100.00;103253.13;5044750;28;20052;-51
2022/01/21 07:39:16;;;;;;;4.55;1.63;;;;;;;-6.86;100.00;103247.13;5040102;28;20033;-51
2022/01/21 07:41:41;;;;;;;4.80;3.43;;;;;;;-6.81;100.00;103255.69;5034580;28;20574;-47
2022/01/21 07:44:07;;;;;;;6.03;3.47;;;;;;;-6.76;100.00;103263.38;5046399;28;20029;-53
2022/01/21 07:46:32;;;;;;;9.57;2.13;;;;;;;-6.80;100.00;103263.41;5042670;28;20093;-47
2022/01/21 07:48:59;;;;;;;6.03;2.83;;;;;;;-6.82;100.00;103266.88;5040090;28;20057;-53
2022/01/21 07:51:26;;;;;;;2.45;2.17;;;;;;;-6.85;100.00;103264.31;5041461;28;20033;-48
2022/01/21 07:53:51;;;;;;;14.10;2.83;;;;;;;-6.88;100.00;103272.09;5042508;28;20111;-52
2022/01/21 07:56:16;;;;;;;4.63;3.05;;;;;;;-6.85;100.00;103279.78;5037465;28;20624;-49
2022/01/21 07:58:42;;;;;;;13.45;1.85;;;;;;;-6.81;100.00;103287.50;5044843;28;20064;-50
2022/01/21 08:01:07;;;;;;;5.40;2.55;;;;;;;-6.82;100.00;103279.75;5039339;28;20033;-54
2022/01/21 08:03:33;;;;;;;7.25;2.38;;;;;;;-6.89;100.00;103281.56;5040122;28;20037;-52
2022/01/21 08:05:58;;;;;;;7.50;2.10;;;;;;;-6.95;100.00;103286.72;5041871;28;20398;-50
2022/01/21 08:08:26;;;;;;;4.43;1.70;;;;;;;-6.87;100.00;103297.84;5037102;28;20029;-50
2022/01/21 08:10:51;;;;;;;14.05;2.15;;;;;;;-6.78;100.00;103296.09;5014934;28;20033;-50
2022/01/21 08:13:17;;;;;;;14.43;6.57;;;;;;;-6.71;100.00;103293.47;5037996;28;20389;-51
2022/01/21 08:15:42;;;;;;;9.02;3.00;;;;;;;-6.68;100.00;103288.28;5037251;28;20445;-50
2022/01/21 08:18:12;;;;;;;5.28;3.30;;;;;;;-6.69;100.00;103278.81;5044289;28;20482;-50
2022/01/21 08:20:37;;;;;;;6.03;2.70;;;;;;;-6.70;100.00;103284.00;5041414;28;20057;-49
2022/01/21 08:23:03;;;;;;;5.82;2.42;;;;;;;-6.71;100.00;103279.69;5044152;28;20106;-50
2022/01/21 08:25:28;;;;;;;5.32;3.08;;;;;;;-6.68;100.00;103283.13;5036288;28;20040;-52
2022/01/21 08:27:53;;;;;;;3.40;2.40;;;;;;;-6.65;100.00;103277.09;5028080;28;20382;-52
2022/01/21 08:30:19;;;;;;;3.40;2.17;;;;;;;-6.64;100.00;103281.38;5020266;28;20676;-53
2022/01/21 08:32:45;;;;;;;5.55;2.67;;;;;;;-6.65;100.00;103283.09;5042542;28;20041;-51
2022/01/21 08:35:10;;;;;;;13.50;3.95;;;;;;;-6.54;100.00;103293.34;5048749;28;20036;-50
2022/01/21 08:37:36;;;;;;;9.52;2.78;;;;;;;-6.34;100.00;103302.66;5045447;28;20060;-52
2022/01/21 08:40:03;;;;;;;2.50;1.70;;;;;;;-6.17;100.00;103295.59;5027999;28;20078;-48
2022/01/21 08:42:28;;;;;;;7.53;2.80;;;;;;;-5.98;100.00;103298.88;5039810;28;20040;-51
2022/01/21 08:44:54;;;;;;;9.73;3.70;;;;;;;-5.77;100.00;103301.19;5037920;28;20033;-51
2022/01/21 08:47:22;;;;;;;6.40;3.28;;;;;;;-5.56;100.00;103288.91;5032272;28;20064;-51
2022/01/21 08:49:49;;;;;;;11.55;4.35;;;;;;;-5.41;100.00;103298.22;5044375;28;20035;-48
2022/01/21 08:52:20;;;;;;;7.03;3.80;;;;;;;-5.30;100.00;103304.09;5045884;28;20037;-52
2022/01/21 08:54:49;;;;;;;7.78;2.80;;;;;;;-5.17;100.00;103295.28;5045823;28;20033;-48
2022/01/21 08:57:16;;;;;;;17.38;4.40;;;;;;;-5.07;100.00;103285.69;5034791;28;20033;-48
2022/01/21 08:59:42;;;;;;;7.75;3.45;;;;;;;-4.95;100.00;103287.25;5045728;28;20036;-50
2022/01/21 09:02:08;;;;;;;9.13;5.05;;;;;;;-4.84;100.00;103281.03;5045616;28;20025;-50
2022/01/21 09:04:33;;;;;;;14.55;4.28;;;;;;;-4.71;100.00;103266.16;5027449;28;20056;-51
2022/01/21 09:06:59;;;;;;;16.10;4.20;;;;;;;-4.61;100.00;103262.56;5045439;28;20041;-49
2022/01/21 09:09:25;;;;;;;7.78;4.80;;;;;;;-4.49;100.00;103264.09;5045969;28;20410;-51
2022/01/21 09:11:53;;;;;;;5.68;3.78;;;;;;;-4.36;100.00;103269.03;5026439;28;20082;-51
2022/01/21 09:14:19;;;;;;;8.27;4.72;;;;;;;-4.28;100.00;103257.69;5042577;28;20041;-52
2022/01/21 09:16:44;;;;;;;9.82;4.05;;;;;;;-4.18;100.00;103267.00;5030723;28;20037;-50
2022/01/21 09:19:10;;;;;;;6.70;3.90;;;;;;;-4.03;100.00;103259.81;5036419;28;20045;-50
2022/01/21 09:21:38;;;;;;;11.73;4.65;;;;;;;-3.91;100.00;103256.16;5045546;28;20033;-50
2022/01/21 09:24:05;;;;;;;9.73;3.72;;;;;;;-3.83;100.00;103257.72;5035709;28;20495;-54
2022/01/21 09:26:30;;;;;;;6.53;3.00;;;;;;;-3.74;100.00;103257.53;5037273;28;20032;-54
2022/01/21 09:28:58;;;;;;;7.03;3.80;;;;;;;-3.63;100.00;103264.25;5043011;28;20040;-48
2022/01/21 09:31:23;;;;;;;5.47;4.00;;;;;;;-3.54;100.00;103261.44;5041044;28;20037;-48
2022/01/21 09:33:49;;;;;;;10.85;4.78;;;;;;;-3.45;100.00;103257.84;5038269;28;20036;-50
2022/01/21 09:36:17;;;;;;;6.18;4.20;;;;;;;-3.35;100.00;103265.38;5041315;28;20536;-50
2022/01/21 09:38:42;;;;;;;12.98;4.93;;;;;;;-3.28;100.00;103271.28;5045198;28;20032;-51
2022/01/21 09:41:09;;;;;;;7.65;3.55;;;;;;;-3.20;100.00;103273.72;5037768;28;20546;-50
2022/01/21 09:43:37;;;;;;;10.32;4.32;;;;;;;-3.15;100.00;103270.16;5044708;28;20056;-51
2022/01/21 09:46:06;;;;;;;7.38;4.38;;;;;;;-3.09;100.00;103262.22;5042644;28;20086;-47
2022/01/21 09:48:36;;;;;;;7.55;3.35;;;;;;;-3.01;100.00;103263.78;5039804;28;20098;-49
2022/01/21 09:51:02;;;;;;;5.18;3.42;;;;;;;-2.94;100.00;103258.44;5043499;28;20525;-50
2022/01/21 09:53:31;;;;;;;7.35;4.43;;;;;;;-2.84;100.00;103251.25;5044646;28;20072;-48
2022/01/21 09:55:59;;;;;;;20.17;5.78;;;;;;;-2.75;100.00;103252.78;5043728;28;20033;-52
2022/01/21 09:58:26;;;;;;;9.38;3.67;;;;;;;-2.66;100.00;103258.63;5036728;28;20113;-49
2022/01/21 10:00:53;;;;;;;7.30;5.05;;;;;;;-2.57;100.00;103254.94;5036794;28;20021;-49
2022/01/21 10:03:18;;;;;;;6.80;4.47;;;;;;;-2.48;100.00;103253.84;5037508;28;20037;-51
2022/01/21 10:05:46;;;;;;;8.75;3.83;;;;;;;-2.39;100.00;103255.38;5036529;28;20025;-52
2022/01/21 10:08:13;;;;;;;7.60;3.97;;;;;;;-2.31;100.00;103256.03;5025416;28;20021;-51
2022/01/21 10:10:43;;;;;;;7.30;3.28;;;;;;;-2.23;100.00;103260.13;5041332;28;20091;-53
2022/01/21 10:13:09;;;;;;;11.30;5.80;;;;;;;-2.14;100.00;103265.97;5039381;28;20116;-50
2022/01/21 10:15:36;;;;;;;23.05;11.10;;;;;;;-2.05;100.00;103270.94;5041682;28;20028;-52
2022/01/21 10:18:17;;;;;;;24.92;9.82;;;;;;;-1.94;100.00;103265.44;5036796;28;20033;-53
2022/01/21 10:20:58;;;;;;;;;;;;;;;-1.85;100.00;103262.59;5038044;28;20041;-52
2022/01/21 10:23:23;;;;;;;9.75;5.35;;;;;;;-1.75;100.00;103261.47;5036484;28;19921;-47
2022/01/21 10:26:06;;;;;;;11.00;5.20;;;;;;;-1.63;100.00;103265.44;5050222;28;20540;-50
2022/01/21 10:28:33;;;;;;;25.45;8.88;;;;;;;-1.59;100.00;103262.72;5043575;28;20478;-49
2022/01/21 10:31:13;;;;;;;15.02;6.97;;;;;;;-1.48;100.00;103265.00;5044080;28;20044;-49
2022/01/21 10:33:45;;;;;;;15.77;6.95;;;;;;;-1.39;100.00;103261.28;5044985;28;20037;-51
2022/01/21 10:36:21;;;;;;;18.45;6.95;;;;;;;-1.29;100.00;103260.13;5041969;28;20102;-51
2022/01/21 10:38:48;;;;;;;13.98;5.90;;;;;;;-1.20;100.00;103254.63;5044247;28;20416;-47
2022/01/21 10:41:17;;;;;;;8.30;5.03;;;;;;;-1.15;100.00;103259.69;5044723;28;20036;-50
2022/01/21 10:43:44;;;;;;;18.60;6.00;;;;;;;-1.08;100.00;103262.94;5042988;28;20032;-50
2022/01/21 10:46:16;;;;;;;12.00;4.45;;;;;;;-1.01;100.00;103261.88;5040387;28;20037;-49
2022/01/21 10:49:04;;;;;;;15.73;6.03;;;;;;;-0.92;100.00;103254.63;5032663;28;20086;-52
2022/01/21 10:51:33;;;;;;;17.20;4.85;;;;;;;-0.85;100.00;103250.09;5044782;28;20112;-49
2022/01/21 10:54:12;;;;;;;7.43;4.38;;;;;;;-0.81;100.00;103253.44;5040888;28;20302;-51
2022/01/21 10:56:38;;;;;;;12.40;4.50;;;;;;;-0.77;100.00;103262.88;5040307;28;20442;-48
2022/01/21 10:59:03;;;;;;;9.00;5.53;;;;;;;-0.72;100.00;103255.75;5032847;28;20036;-49
2022/01/21 11:01:30;;;;;;;8.20;4.20;;;;;;;-0.65;100.00;103252.03;5038906;28;20037;-47
2022/01/21 11:04:07;;;;;;;12.00;4.25;;;;;;;-0.61;100.00;103252.78;5043199;28;20444;-49
2022/01/21 11:06:41;;;;;;;7.43;3.90;;;;;;;-0.58;100.00;103260.50;5044621;28;20099;-48
2022/01/21 11:09:28;;;;;;;9.15;4.10;;;;;;;-0.52;100.00;103247.25;5046717;28;20028;-47
2022/01/21 11:12:16;;;;;;;8.95;4.47;;;;;;;-0.47;100.00;103251.41;5045682;28;20037;-49
2022/01/21 11:14:56;;;;;;;13.50;4.30;;;;;;;-0.44;100.00;103250.44;5045327;28;20636;-48
2022/01/21 11:17:21;;;;;;;17.13;4.85;;;;;;;-0.37;100.00;103246.75;5041012;28;20029;-53
2022/01/21 11:20:06;;;;;;;6.35;4.20;;;;;;;-0.33;100.00;103253.56;5041843;28;20087;-50
2022/01/21 11:22:50;;;;;;;6.57;3.40;;;;;;;-0.29;100.00;103239.50;5043125;28;20029;-49
2022/01/21 11:25:16;;;;;;;12.38;5.38;;;;;;;-0.22;100.00;103241.00;5041521;28;20044;-51
2022/01/21 11:27:55;;;;;;;5.35;3.30;;;;;;;-0.11;100.00;103238.00;5044866;28;20024;-49
2022/01/21 11:30:21;;;;;;;7.13;3.33;;;;;;;-0.01;100.00;103235.94;5039118;28;20033;-50
2022/01/21 11:32:46;;;;;;;4.78;2.13;;;;;;;0.04;100.00;103239.22;5027414;28;20087;-52
2022/01/21 11:35:12;;;;;;;5.30;2.53;;;;;;;0.12;100.00;103229.38;5043784;28;20034;-48
2022/01/21 11:37:38;;;;;;;5.57;2.42;;;;;;;0.21;100.00;103241.25;5047693;28;20513;-49
2022/01/21 11:40:05;;;;;;;4.47;1.55;;;;;;;0.31;100.00;103236.50;5046905;28;20400;-48
2022/01/21 11:42:30;;;;;;;7.32;1.88;;;;;;;0.38;100.00;103230.16;5034242;28;20131;-52
2022/01/21 11:45:14;;;;;;;3.20;1.80;;;;;;;0.37;100.00;103226.72;5046908;28;20032;-49
2022/01/21 11:48:00;;;;;;;12.63;1.48;;;;;;;0.38;100.00;103215.34;5044307;28;20554;-52
2022/01/21 11:50:29;;;;;;;6.75;1.33;;;;;;;0.46;100.00;103222.88;5037659;28;20394;-53
2022/01/21 11:52:55;;;;;;;6.32;1.25;;;;;;;0.52;100.00;103212.22;5045923;28;20052;-52
2022/01/21 11:55:48;;;;;;;6.65;1.15;;;;;;;0.60;100.00;103207.56;5046398;28;20032;-52
2022/01/21 11:58:22;;;;;;;4.10;0.93;;;;;;;0.68;100.00;103207.25;5038921;28;20044;-52
2022/01/21 12:00:50;;;;;;;5.18;2.38;;;;;;;0.70;100.00;103199.34;5020773;28;20037;-49
2022/01/21 12:03:22;;;;;;;3.50;2.05;;;;;;;0.72;100.00;103208.81;5045224;28;20033;-51
2022/01/21 12:05:49;;;;;;;3.22;1.20;;;;;;;0.76;100.00;103199.97;5039199;28;20044;-52
2022/01/21 12:08:14;;;;;;;3.72;1.52;;;;;;;0.82;100.00;103204.09;5046718;28;20036;-51
2022/01/21 12:10:42;;;;;;;7.13;1.70;;;;;;;0.91;100.00;103208.13;5035158;28;20374;-54